^^
Scobey's Weather Historical Data
 
Daily Summary for October 17, 2018 Units:  English    Metric   Both
Daily Weekly Monthly Yearly Custom
  Current: High: Low: Average:
Temperature: 46.3 °F 52.4 °F 45.6 °F 49.2 °F
Dew Point: 39.1 °F 39.7 °F 36 °F 38.6 °F
Humidity: 76% 78% 54% 67%
Wind Speed: 0mph 3mph 0mph 0.7mph
Wind Gust: 2mph 8mph - -
WindCalm - - South
Pressure: 29.54 in 29.54 in 29.49 in -
Precipitation: 0 in      
Historical Graphs
 
 
Tabular Data for October 17, 2018
Time Temperature Dew Point Pressure Wind Wind Speed Wind Gust Humidity Rainfall Rate (Hourly) solar
00:04 52.1 °F 36.9 °F 29.49 in South 2 mph 4 mph 56% 0 in 0.00 W/m2
00:09 52.1 °F 36.9 °F 29.50 in South 1 mph 4 mph 56% 0 in 0.00 W/m2
00:14 52.1 °F 36.9 °F 29.50 in South 1 mph 3 mph 56% 0 in 0.00 W/m2
00:19 52.1 °F 37.3 °F 29.50 in South 1 mph 3 mph 57% 0 in 0.00 W/m2
00:24 52 °F 36.3 °F 29.50 in SSE 1 mph 7 mph 55% 0 in 0.00 W/m2
00:29 52.2 °F 36 °F 29.51 in SSE 2 mph 7 mph 54% 0 in 0.00 W/m2
00:34 52.4 °F 37.2 °F 29.51 in SSE 3 mph 8 mph 56% 0 in 0.00 W/m2
00:39 52.3 °F 37.5 °F 29.51 in SSE 3 mph 8 mph 57% 0 in 0.00 W/m2
00:44 52.1 °F 38.2 °F 29.51 in SE 2 mph 7 mph 59% 0 in 0.00 W/m2
00:49 51.7 °F 38.3 °F 29.52 in SSE 1 mph 6 mph 60% 0 in 0.00 W/m2
00:54 51.5 °F 37.6 °F 29.52 in SSE 2 mph 8 mph 59% 0 in 0.00 W/m2
00:59 51.3 °F 38.3 °F 29.52 in SSE 2 mph 8 mph 61% 0 in 0.00 W/m2
01:04 51.1 °F 38.5 °F 29.52 in SSE 1 mph 6 mph 62% 0 in 0.00 W/m2
01:09 50.9 °F 38.7 °F 29.51 in South 1 mph 5 mph 63% 0 in 0.00 W/m2
01:14 50.7 °F 39.4 °F 29.51 in SSW 1 mph 5 mph 65% 0 in 0.00 W/m2
01:19 50.5 °F 38.4 °F 29.52 in South 1 mph 4 mph 63% 0 in 0.00 W/m2
01:24 50.6 °F 38.5 °F 29.52 in SSE 2 mph 5 mph 63% 0 in 0.00 W/m2
01:29 50.6 °F 38.5 °F 29.52 in SSE 2 mph 6 mph 63% 0 in 0.00 W/m2
01:34 50.7 °F 38.6 °F 29.52 in SSE 2 mph 6 mph 63% 0 in 0.00 W/m2
01:39 50.7 °F 38.6 °F 29.52 in SE 2 mph 7 mph 63% 0 in 0.00 W/m2
01:44 50.7 °F 38.6 °F 29.52 in SE 1 mph 7 mph 63% 0 in 0.00 W/m2
01:49 50.7 °F 38.6 °F 29.52 in SSE 2 mph 5 mph 63% 0 in 0.00 W/m2
01:54 50.7 °F 38.6 °F 29.52 in SSE 1 mph 5 mph 63% 0 in 0.00 W/m2
01:59 50.6 °F 38.5 °F 29.52 in Calm   3 mph 63% 0 in 0.00 W/m2
02:04 50.5 °F 38.4 °F 29.52 in SSE 1 mph 6 mph 63% 0 in 0.00 W/m2
02:09 50.5 °F 38.4 °F 29.52 in South 2 mph 6 mph 63% 0 in 0.00 W/m2
02:14 50.5 °F 38.4 °F 29.52 in South 1 mph 4 mph 63% 0 in 0.00 W/m2
02:19 50.5 °F 38.4 °F 29.52 in South 1 mph 4 mph 63% 0 in 0.00 W/m2
02:24 50.4 °F 38.3 °F 29.52 in South 1 mph 2 mph 63% 0 in 0.00 W/m2
02:29 50.3 °F 38.2 °F 29.52 in Calm   3 mph 63% 0 in 0.00 W/m2
02:34 50.2 °F 38.1 °F 29.52 in SSE 1 mph 6 mph 63% 0 in 0.00 W/m2
02:39 50.4 °F 37.9 °F 29.52 in SSE 1 mph 6 mph 62% 0 in 0.00 W/m2
02:44 50.4 °F 38.3 °F 29.52 in SSE 1 mph 5 mph 63% 0 in 0.00 W/m2
02:49 50.2 °F 38.5 °F 29.52 in Calm   2 mph 64% 0 in 0.00 W/m2
02:54 49.8 °F 38.1 °F 29.52 in South 1 mph 3 mph 64% 0 in 0.00 W/m2
02:59 49.8 °F 38.5 °F 29.52 in SW 1 mph 4 mph 65% 0 in 0.00 W/m2
03:04 49.8 °F 38.1 °F 29.53 in WSW 1 mph 4 mph 64% 0 in 0.00 W/m2
03:09 49.9 °F 38.6 °F 29.53 in Calm   1 mph 65% 0 in 0.00 W/m2
03:14 49.7 °F 38.8 °F 29.53 in Calm   1 mph 66% 0 in 0.00 W/m2
03:19 49.6 °F 38.3 °F 29.53 in Calm   2 mph 65% 0 in 0.00 W/m2
03:24 49.3 °F 38.8 °F 29.52 in Calm   2 mph 67% 0 in 0.00 W/m2
03:29 49 °F 38.5 °F 29.52 in Calm   1 mph 67% 0 in 0.00 W/m2
03:34 48.7 °F 38.6 °F 29.53 in Calm     68% 0 in 0.00 W/m2
03:39 48.5 °F 38.4 °F 29.53 in Calm   1 mph 68% 0 in 0.00 W/m2
03:44 48.4 °F 38.7 °F 29.53 in Calm   1 mph 69% 0 in 0.00 W/m2
03:49 48.3 °F 39 °F 29.53 in Calm   1 mph 70% 0 in 0.00 W/m2
03:54 48.2 °F 38.9 °F 29.53 in Calm   3 mph 70% 0 in 0.00 W/m2
03:59 48.1 °F 39.5 °F 29.53 in Calm   3 mph 72% 0 in 0.00 W/m2
04:04 47.9 °F 39.3 °F 29.53 in Calm   3 mph 72% 0 in 0.00 W/m2
04:09 47.7 °F 39.5 °F 29.54 in Calm   2 mph 73% 0 in 0.00 W/m2
04:14 47.5 °F 39.3 °F 29.53 in Calm   1 mph 73% 0 in 0.00 W/m2
04:19 47.3 °F 39.4 °F 29.54 in Calm   1 mph 74% 0 in 0.00 W/m2
04:24 47.2 °F 39.7 °F 29.54 in Calm     75% 0 in 0.00 W/m2
04:29 47 °F 39.5 °F 29.54 in Calm   2 mph 75% 0 in 0.00 W/m2
04:34 46.8 °F 39.6 °F 29.54 in Calm   2 mph 76% 0 in 0.00 W/m2
04:39 46.6 °F 39.4 °F 29.54 in Calm   1 mph 76% 0 in 0.00 W/m2
04:44 46.4 °F 39.2 °F 29.54 in Calm   1 mph 76% 0 in 0.00 W/m2
04:49 46.2 °F 39.4 °F 29.54 in Calm     77% 0 in 0.00 W/m2
04:54 46 °F 39.2 °F 29.54 in Calm   1 mph 77% 0 in 0.00 W/m2
04:59 45.9 °F 39.1 °F 29.53 in NNW 1 mph 2 mph 77% 0 in 0.00 W/m2
05:04 46 °F 39.2 °F 29.54 in NNW 1 mph 2 mph 77% 0 in 0.00 W/m2
05:09 46 °F 39.2 °F 29.53 in Calm   2 mph 77% 0 in 0.00 W/m2
05:14 45.9 °F 39.1 °F 29.53 in Calm   1 mph 77% 0 in 0.00 W/m2
05:19 45.8 °F 39 °F 29.53 in Calm   2 mph 77% 0 in 0.00 W/m2
05:24 45.8 °F 39.3 °F 29.53 in Calm   2 mph 78% 0 in 0.00 W/m2
05:29 45.6 °F 39.1 °F 29.53 in Calm   1 mph 78% 0 in 0.00 W/m2
05:34 45.6 °F 39.1 °F 29.53 in Calm   2 mph 78% 0 in 0.00 W/m2
05:39 45.6 °F 39.1 °F 29.53 in Calm   2 mph 78% 0 in 0.00 W/m2
05:44 45.8 °F 39.3 °F 29.53 in Calm   4 mph 78% 0 in 0.00 W/m2
05:49 46.1 °F 39 °F 29.53 in SE 1 mph 4 mph 76% 0 in 0.00 W/m2
05:54 46.3 °F 39.1 °F 29.54 in Calm   2 mph 76% 0 in 0.00 W/m2
Scobey\s Weather
Compliments of Weather Underground - 2 mb

USA Weather Finder






Flag Counter